createdAt,value
2022-12-18T05:04:43.849Z,89.12
2022-12-18T05:08:55.372Z,89.14
2022-12-18T05:13:06.873Z,89.45
2022-12-18T05:17:18.476Z,89.41
2022-12-18T05:21:31.195Z,88.61
2022-12-18T05:25:42.688Z,88.80
2022-12-18T05:29:54.144Z,88.65
2022-12-18T05:34:06.086Z,89.14
2022-12-18T05:38:17.573Z,88.82
2022-12-18T05:42:29.132Z,88.63
2022-12-18T05:46:40.710Z,88.36
2022-12-18T05:50:52.392Z,88.59
2022-12-18T05:55:04.119Z,87.21
2022-12-18T05:59:15.593Z,86.30
2022-12-18T06:03:33.567Z,87.12
2022-12-18T06:07:45.408Z,86.99
2022-12-18T06:11:57.001Z,87.96
2022-12-18T06:16:09.177Z,89.97
2022-12-18T06:20:21.092Z,89.39
2022-12-18T06:24:32.519Z,89.28
2022-12-18T06:28:44.047Z,89.37
2022-12-18T06:32:56.866Z,89.14
2022-12-18T06:37:08.608Z,89.53
2022-12-18T06:41:21.837Z,89.10
2022-12-18T06:45:33.424Z,89.39
2022-12-18T06:49:45.023Z,89.60
2022-12-18T06:53:56.553Z,89.37
2022-12-18T06:58:08.017Z,89.46
2022-12-18T07:02:19.892Z,89.03
2022-12-18T07:06:31.948Z,89.12
2022-12-18T07:10:46.982Z,89.08
2022-12-18T07:14:59.740Z,88.72
2022-12-18T07:19:11.262Z,88.43
2022-12-18T07:23:22.761Z,88.11
2022-12-18T07:27:34.196Z,87.12
2022-12-18T07:31:46.892Z,84.98
2022-12-18T07:36:00.604Z,84.46
2022-12-18T07:40:13.300Z,83.41
2022-12-18T07:44:25.137Z,83.12
2022-12-18T07:48:36.816Z,85.87
2022-12-18T07:52:48.620Z,83.85
2022-12-18T07:57:00.616Z,83.54
2022-12-18T08:01:12.986Z,83.02
2022-12-18T08:05:24.748Z,82.74
2022-12-18T08:09:36.205Z,82.92
2022-12-18T08:13:47.669Z,82.19
2022-12-18T08:17:59.252Z,82.66
2022-12-18T08:22:10.753Z,83.14
2022-12-18T08:26:23.053Z,83.43
2022-12-18T08:30:34.595Z,83.14
2022-12-18T08:34:46.065Z,83.29
2022-12-18T08:38:58.171Z,84.23
2022-12-18T08:43:29.943Z,83.98
2022-12-18T08:47:41.408Z,83.76
2022-12-18T08:51:55.728Z,84.40
2022-12-18T08:56:07.482Z,83.85
2022-12-18T09:00:19.122Z,84.32
2022-12-18T09:04:30.615Z,84.52
2022-12-18T09:08:43.056Z,84.66
2022-12-18T09:12:55.007Z,84.36
2022-12-18T09:17:06.642Z,84.09
2022-12-18T09:21:22.201Z,84.10
2022-12-18T09:25:36.611Z,84.95
2022-12-18T09:29:48.156Z,84.20
2022-12-18T09:33:59.694Z,85.27
2022-12-18T09:38:16.447Z,85.17
2022-12-18T09:42:28.259Z,85.93
2022-12-18T09:47:16.166Z,86.38
2022-12-18T09:51:47.719Z,88.38
2022-12-18T09:56:50.575Z,86.29
2022-12-18T10:01:15.632Z,86.16
2022-12-18T10:06:17.793Z,85.72
2022-12-18T10:10:49.086Z,85.13
2022-12-18T10:15:35.044Z,85.40
2022-12-18T10:19:53.974Z,84.95
2022-12-18T10:24:28.810Z,84.83
2022-12-18T10:28:42.640Z,84.87
2022-12-18T10:32:55.235Z,84.40
2022-12-18T10:37:13.838Z,84.63
2022-12-18T10:41:27.716Z,85.76
2022-12-18T10:45:42.631Z,85.29
2022-12-18T10:49:56.390Z,85.36
2022-12-18T10:54:15.164Z,85.79
2022-12-18T10:58:30.258Z,85.08
2022-12-18T11:02:45.132Z,85.26
2022-12-18T11:07:11.187Z,84.48
2022-12-18T11:11:47.705Z,85.72
2022-12-18T11:16:03.012Z,84.46
2022-12-18T11:20:38.692Z,84.85
2022-12-18T11:29:46.755Z,84.15
2022-12-18T11:51:00.487Z,85.34
2022-12-18T12:02:43.410Z,85.75
2022-12-18T12:13:27.400Z,85.41
2022-12-18T12:17:49.351Z,85.56
2022-12-18T12:22:16.179Z,86.31
2022-12-18T12:26:30.636Z,85.75
2022-12-18T12:31:01.996Z,86.29
2022-12-18T12:35:37.783Z,86.70
2022-12-18T12:39:49.478Z,86.22
2022-12-18T12:44:08.008Z,86.32
2022-12-18T12:48:49.531Z,86.59
2022-12-18T12:53:08.323Z,85.94
2022-12-18T12:57:33.345Z,85.97
2022-12-18T13:02:05.740Z,86.14
2022-12-18T13:06:44.907Z,86.36
2022-12-18T13:11:19.875Z,86.65
2022-12-18T13:15:39.957Z,86.45
2022-12-18T13:19:53.689Z,85.80
2022-12-18T13:24:27.603Z,85.97
2022-12-18T13:28:51.023Z,85.90
2022-12-18T13:33:14.669Z,86.27
2022-12-18T13:37:32.401Z,85.68
2022-12-18T13:41:45.614Z,86.13
2022-12-18T13:46:04.657Z,86.26
2022-12-18T13:50:26.353Z,86.03
2022-12-18T13:54:42.561Z,86.37
2022-12-18T13:59:16.453Z,87.07
2022-12-18T14:03:29.744Z,86.82
2022-12-18T14:07:44.977Z,86.85
2022-12-18T14:12:19.315Z,86.85
2022-12-18T14:16:31.314Z,87.16
2022-12-18T14:20:52.159Z,87.07
2022-12-18T14:25:13.454Z,87.00
2022-12-18T14:29:30.387Z,86.82
2022-12-18T14:33:42.233Z,87.21
2022-12-18T14:37:53.946Z,87.67
2022-12-18T14:42:05.465Z,87.37
2022-12-18T14:46:28.371Z,87.54
2022-12-18T14:50:40.598Z,88.02
2022-12-18T14:54:53.473Z,88.14
2022-12-18T14:59:24.837Z,87.99
2022-12-18T15:03:36.764Z,87.97
2022-12-18T15:07:51.546Z,88.30
2022-12-18T15:12:03.782Z,88.66
2022-12-18T15:16:15.416Z,88.83
2022-12-18T15:20:27.529Z,88.34
2022-12-18T15:24:39.046Z,88.85
2022-12-18T15:28:51.886Z,88.93
2022-12-18T15:33:26.111Z,89.06
2022-12-18T15:37:38.723Z,89.22
2022-12-18T15:42:10.603Z,89.57
2022-12-18T15:46:27.302Z,89.33
2022-12-18T15:50:39.076Z,88.98
2022-12-18T15:55:09.018Z,88.85
2022-12-18T15:59:21.648Z,88.88
2022-12-18T16:03:33.261Z,88.91
2022-12-18T16:07:45.941Z,89.60
2022-12-18T16:11:57.433Z,89.65
2022-12-18T16:16:09.636Z,89.53
2022-12-18T16:20:22.929Z,89.38
2022-12-18T16:24:37.046Z,89.34
2022-12-18T16:28:48.692Z,89.12
2022-12-18T16:33:00.610Z,89.37
2022-12-18T16:37:14.427Z,89.35
2022-12-18T16:41:31.907Z,89.40
2022-12-18T16:45:43.322Z,90.10
2022-12-18T16:49:54.874Z,89.34
2022-12-18T16:54:10.323Z,90.19
2022-12-18T16:58:24.216Z,89.66
2022-12-18T17:02:35.982Z,89.03
2022-12-18T17:06:51.718Z,89.27
2022-12-18T17:11:07.854Z,89.82
2022-12-18T17:15:19.314Z,90.27
2022-12-18T17:19:31.538Z,90.41
2022-12-18T17:23:44.235Z,90.68
2022-12-18T17:27:55.751Z,91.35
2022-12-18T17:32:07.174Z,90.67
2022-12-18T17:36:18.861Z,90.68
2022-12-18T17:40:33.228Z,90.29
2022-12-18T17:44:45.741Z,90.34
2022-12-18T17:48:58.398Z,90.42
2022-12-18T17:53:09.860Z,89.66
2022-12-18T17:57:22.350Z,89.74
2022-12-18T18:01:40.940Z,89.61
2022-12-18T18:05:57.093Z,89.13
2022-12-18T18:10:09.340Z,88.44
2022-12-18T18:14:21.281Z,88.79
2022-12-18T18:18:33.020Z,88.60
2022-12-18T18:22:44.647Z,88.13
2022-12-18T18:26:56.402Z,89.09
2022-12-18T18:31:10.380Z,89.26
2022-12-18T18:35:52.411Z,88.61
2022-12-18T18:39:53.442Z,88.98
2022-12-18T18:44:05.121Z,88.38
2022-12-18T18:48:16.561Z,89.02
2022-12-18T18:52:28.053Z,88.79
2022-12-18T18:57:40.100Z,88.37
2022-12-18T19:01:14.531Z,88.87
2022-12-18T19:05:26.051Z,88.84
2022-12-18T19:09:37.590Z,89.42
2022-12-18T19:13:49.038Z,88.97
2022-12-18T19:18:00.637Z,89.11
2022-12-18T19:22:12.510Z,88.18
2022-12-18T19:26:27.873Z,88.86
2022-12-18T19:30:40.188Z,89.18
2022-12-18T19:34:53.754Z,88.78
2022-12-18T19:39:14.412Z,89.24
2022-12-18T19:43:27.015Z,89.13
2022-12-18T19:47:38.537Z,89.46
2022-12-18T19:51:50.548Z,89.32
2022-12-18T19:56:07.517Z,89.20
2022-12-18T20:00:19.162Z,89.28
2022-12-18T20:04:31.952Z,88.79
2022-12-18T20:08:43.508Z,89.05
2022-12-18T20:12:55.038Z,88.89
2022-12-18T20:17:08.072Z,89.26
2022-12-18T20:21:21.032Z,89.70
2022-12-18T20:25:32.611Z,90.06
2022-12-18T20:29:44.277Z,89.63
2022-12-18T20:34:00.232Z,89.57
2022-12-18T20:38:13.487Z,90.09
2022-12-18T20:42:25.108Z,90.35
2022-12-18T20:46:36.606Z,89.80
2022-12-18T20:50:58.195Z,90.22
2022-12-18T20:55:11.751Z,89.91
2022-12-18T20:59:25.486Z,90.24
2022-12-18T21:03:38.275Z,89.76
2022-12-18T21:07:50.008Z,89.77
2022-12-18T21:12:20.120Z,89.48
2022-12-18T21:16:31.833Z,89.47
2022-12-18T21:20:52.465Z,89.75
2022-12-18T21:25:08.254Z,89.64
2022-12-18T21:29:25.725Z,89.20
2022-12-18T21:33:42.261Z,89.62
2022-12-18T21:37:53.900Z,89.69
2022-12-18T21:43:08.416Z,89.75
2022-12-18T21:47:21.756Z,89.64
2022-12-18T21:51:35.966Z,89.53
2022-12-18T21:55:47.431Z,89.89
2022-12-18T21:59:59.078Z,89.60
2022-12-18T22:04:10.822Z,90.08
2022-12-18T22:08:22.344Z,89.76
2022-12-18T22:12:41.623Z,89.94
2022-12-18T22:16:57.320Z,89.94
2022-12-18T22:21:29.764Z,90.21
2022-12-18T22:25:41.326Z,90.08
